Wilmington, VT (05363)

4:16 AM EDT on August 20, 2014 (GMT -0400)
Wastewater Treatment Plant | Change Station
CLOSE
Current Station
Personal Weather Station
Location: Wilmington, VT
Elevation: 1500 ft
Nearby Weather Stations

Elev 1500 ft 42.87 °N, 72.88 °W | Updated 1 minute ago

Clear
Clear
48.8 °F
Feels Like 49 °F
N
0.0
Wind Variable Wind from WSW
Gusts 0.0 mph

Today
High -- | Low -- °F
--% Chance of Precip.
Yesterday
High -- | Low -- °F
Precip. -- in
6:03 AM 7:45 PM
Waning Crescent, 23% visible
Pressure 29.96 in
Visibility 10.0 miles
Clouds Clear
Windchill 49 °F
Dew Point 48 °F
Humidity 97%
Rainfall 0.00 in
Snow Depth Not available.
UV 0 out of 12
Pollen 9.00 out of 12
Ozone Good
Flu Activity Not available.
METAR KDDH 200754Z AUTO 00000KT 10SM CLR 11/10 A2997 RMK AO2 SLP146 T01110100

More Conditions Fewer Conditions

Pressure 29.96 in
Visibility 10.0 miles
Clouds Clear
Windchill 49 °F
Dew Point 48 °F
Humidity 97%
Rainfall 0.00 in
Snow Depth Not available.
UV 0 out of 12
Pollen 9.00 out of 12
Ozone Good
Flu Activity Not available.
METAR KDDH 200754Z AUTO 00000KT 10SM CLR 11/10 A2997 RMK AO2 SLP146 T01110100

More Conditions Fewer Conditions

10-Day Weather Forecast

Almanac

Astronomy

Aug. 20, 2014 Rise Set
Actual Time 6:03 AM EDT 7:45 PM EDT
Civil Twilight 5:32 AM EDT 8:15 PM EDT
Nautical Twilight 4:56 AM EDT 8:52 PM EDT
Astronomical Twilight 4:16 AM EDT 9:31 PM EDT
Moon 1:38 AM EDT 4:31 PM EDT
Length of Visible Light 14h 43m
Length of Day
13h 42m
Tomorrow will be 2m 39s shorter.
Waning Crescent, 23% of the Moon is Illuminated
Today
Waning Crescent
Aug 25
New
Sep 2
First Quarter
Sep 8
Full
Sep 15
Last Quarter

Today's Extremes

State Highs State Lows

Community

WunderPhotos

Upload Photos

1,745,601 photos uploaded!

Nearby

Air Quality

  Air Quality AQ Index Pollutant
Yesterday Good
OZONE
Current Good
OZONE
Wednesday Good
PM2.5
Wednesday Good
OZONE
Thursday Good
PM2.5
Thursday Good
OZONE

Snow Depth

Station Depth Elevation
No new snow has been reported.

Earthquake Activity

City Distance Mag. Time & Date
Deep River Center, Connecticut 107 miles 2.7 3:09 AM EDT
2014-08-14
Minimum magnitude displayed is 2.5.

Coastal Water Temperatures

Place Temperature
No Stations Reporting

Nearby Weather Stations